sensor_id;sensor_type;location;lat;lon;timestamp;P1;durP1;ratioP1;P2;durP2;ratioP2
19593;SDS011;9944;48.240;16.478;2022-12-18T03:45:25;15.80;;;7.37;;
19593;SDS011;9944;48.240;16.478;2022-12-18T03:49:34;13.90;;;7.27;;
19593;SDS011;9944;48.240;16.478;2022-12-18T03:53:42;13.43;;;7.57;;
19593;SDS011;9944;48.240;16.478;2022-12-18T03:57:54;15.53;;;8.03;;
19593;SDS011;9944;48.240;16.478;2022-12-18T04:02:03;15.40;;;7.03;;
19593;SDS011;9944;48.240;16.478;2022-12-18T04:06:11;14.23;;;7.00;;
19593;SDS011;9944;48.240;16.478;2022-12-18T04:10:16;13.80;;;6.83;;
19593;SDS011;9944;48.240;16.478;2022-12-18T04:14:20;13.57;;;7.13;;
19593;SDS011;9944;48.240;16.478;2022-12-18T04:18:29;15.67;;;7.60;;
19593;SDS011;9944;48.240;16.478;2022-12-18T04:22:35;12.67;;;7.37;;
19593;SDS011;9944;48.240;16.478;2022-12-18T04:26:38;15.87;;;7.67;;
19593;SDS011;9944;48.240;16.478;2022-12-18T04:30:49;16.27;;;8.53;;
19593;SDS011;9944;48.240;16.478;2022-12-18T04:34:55;14.07;;;7.43;;
19593;SDS011;9944;48.240;16.478;2022-12-18T04:38:58;13.73;;;7.37;;
19593;SDS011;9944;48.240;16.478;2022-12-18T04:43:02;14.50;;;7.97;;
19593;SDS011;9944;48.240;16.478;2022-12-18T04:47:05;13.57;;;7.63;;
19593;SDS011;9944;48.240;16.478;2022-12-18T04:51:10;15.07;;;7.67;;
19593;SDS011;9944;48.240;16.478;2022-12-18T04:55:13;14.50;;;7.47;;
19593;SDS011;9944;48.240;16.478;2022-12-18T04:59:16;14.93;;;7.73;;
19593;SDS011;9944;48.240;16.478;2022-12-18T05:03:19;14.50;;;8.00;;
19593;SDS011;9944;48.240;16.478;2022-12-18T05:07:24;17.67;;;8.63;;
19593;SDS011;9944;48.240;16.478;2022-12-18T05:11:27;16.73;;;9.10;;
19593;SDS011;9944;48.240;16.478;2022-12-18T05:15:31;15.30;;;8.73;;
19593;SDS011;9944;48.240;16.478;2022-12-18T05:19:34;13.33;;;7.90;;
19593;SDS011;9944;48.240;16.478;2022-12-18T05:23:41;15.73;;;7.73;;
19593;SDS011;9944;48.240;16.478;2022-12-18T05:27:45;17.63;;;7.27;;
19593;SDS011;9944;48.240;16.478;2022-12-18T05:31:48;13.40;;;7.57;;
19593;SDS011;9944;48.240;16.478;2022-12-18T05:35:51;15.93;;;7.73;;
19593;SDS011;9944;48.240;16.478;2022-12-18T05:39:57;15.13;;;8.07;;
19593;SDS011;9944;48.240;16.478;2022-12-18T05:44:00;17.37;;;8.30;;
19593;SDS011;9944;48.240;16.478;2022-12-18T05:48:03;16.67;;;8.73;;
19593;SDS011;9944;48.240;16.478;2022-12-18T05:52:07;15.10;;;8.03;;
19593;SDS011;9944;48.240;16.478;2022-12-18T05:56:12;13.73;;;8.40;;
19593;SDS011;9944;48.240;16.478;2022-12-18T06:00:17;13.53;;;7.60;;
19593;SDS011;9944;48.240;16.478;2022-12-18T06:04:20;15.30;;;7.37;;
19593;SDS011;9944;48.240;16.478;2022-12-18T06:08:23;13.47;;;7.43;;
19593;SDS011;9944;48.240;16.478;2022-12-18T06:12:27;17.13;;;8.40;;
19593;SDS011;9944;48.240;16.478;2022-12-18T06:16:30;15.10;;;8.03;;
19593;SDS011;9944;48.240;16.478;2022-12-18T06:20:34;17.80;;;8.47;;
19593;SDS011;9944;48.240;16.478;2022-12-18T06:24:40;14.80;;;8.27;;
19593;SDS011;9944;48.240;16.478;2022-12-18T06:28:45;12.67;;;7.77;;
19593;SDS011;9944;48.240;16.478;2022-12-18T06:32:48;15.37;;;8.17;;
19593;SDS011;9944;48.240;16.478;2022-12-18T06:36:57;16.00;;;8.73;;
19593;SDS011;9944;48.240;16.478;2022-12-18T06:41:00;14.13;;;8.30;;
19593;SDS011;9944;48.240;16.478;2022-12-18T06:45:10;17.57;;;9.10;;
19593;SDS011;9944;48.240;16.478;2022-12-18T06:49:15;16.87;;;9.13;;
19593;SDS011;9944;48.240;16.478;2022-12-18T06:53:18;20.37;;;9.87;;
19593;SDS011;9944;48.240;16.478;2022-12-18T06:57:21;20.70;;;10.17;;
19593;SDS011;9944;48.240;16.478;2022-12-18T07:01:26;20.77;;;10.23;;
19593;SDS011;9944;48.240;16.478;2022-12-18T07:05:29;19.00;;;9.60;;
19593;SDS011;9944;48.240;16.478;2022-12-18T07:09:33;14.40;;;8.47;;
19593;SDS011;9944;48.240;16.478;2022-12-18T07:13:36;15.70;;;9.03;;
19593;SDS011;9944;48.240;16.478;2022-12-18T07:17:41;16.97;;;8.97;;
19593;SDS011;9944;48.240;16.478;2022-12-18T07:21:44;17.23;;;8.87;;
19593;SDS011;9944;48.240;16.478;2022-12-18T07:25:47;12.60;;;7.50;;
19593;SDS011;9944;48.240;16.478;2022-12-18T07:29:51;15.33;;;8.47;;
19593;SDS011;9944;48.240;16.478;2022-12-18T07:33:55;17.07;;;8.90;;
19593;SDS011;9944;48.240;16.478;2022-12-18T07:37:58;17.73;;;8.53;;
19593;SDS011;9944;48.240;16.478;2022-12-18T07:42:04;17.43;;;8.43;;
19593;SDS011;9944;48.240;16.478;2022-12-18T07:46:25;14.47;;;8.37;;
19593;SDS011;9944;48.240;16.478;2022-12-18T07:50:30;18.23;;;9.90;;
19593;SDS011;9944;48.240;16.478;2022-12-18T07:54:33;18.80;;;10.47;;
19593;SDS011;9944;48.240;16.478;2022-12-18T07:58:36;18.17;;;10.00;;
19593;SDS011;9944;48.240;16.478;2022-12-18T08:02:39;20.57;;;10.20;;
19593;SDS011;9944;48.240;16.478;2022-12-18T08:06:44;20.80;;;10.23;;
19593;SDS011;9944;48.240;16.478;2022-12-18T08:10:48;19.53;;;10.40;;
19593;SDS011;9944;48.240;16.478;2022-12-18T08:14:52;19.70;;;10.23;;
19593;SDS011;9944;48.240;16.478;2022-12-18T08:18:55;17.53;;;9.93;;
19593;SDS011;9944;48.240;16.478;2022-12-18T08:22:59;18.83;;;10.10;;
19593;SDS011;9944;48.240;16.478;2022-12-18T08:27:03;18.90;;;9.90;;
19593;SDS011;9944;48.240;16.478;2022-12-18T08:31:26;20.60;;;10.60;;
19593;SDS011;9944;48.240;16.478;2022-12-18T08:35:34;19.03;;;9.60;;
19593;SDS011;9944;48.240;16.478;2022-12-18T08:39:46;21.17;;;10.87;;
19593;SDS011;9944;48.240;16.478;2022-12-18T08:43:50;19.37;;;10.87;;
19593;SDS011;9944;48.240;16.478;2022-12-18T08:48:11;18.43;;;10.03;;
19593;SDS011;9944;48.240;16.478;2022-12-18T08:52:21;18.50;;;10.03;;
19593;SDS011;9944;48.240;16.478;2022-12-18T08:56:25;20.77;;;10.13;;
19593;SDS011;9944;48.240;16.478;2022-12-18T09:00:28;23.47;;;11.07;;
19593;SDS011;9944;48.240;16.478;2022-12-18T09:04:34;21.93;;;11.10;;
19593;SDS011;9944;48.240;16.478;2022-12-18T09:08:37;21.17;;;11.07;;
19593;SDS011;9944;48.240;16.478;2022-12-18T09:12:42;19.67;;;10.30;;
19593;SDS011;9944;48.240;16.478;2022-12-18T09:16:45;23.70;;;11.07;;
19593;SDS011;9944;48.240;16.478;2022-12-18T09:20:48;20.80;;;10.90;;
19593;SDS011;9944;48.240;16.478;2022-12-18T09:30:03;17.30;;;9.73;;
19593;SDS011;9944;48.240;16.478;2022-12-18T09:34:07;19.10;;;8.93;;
19593;SDS011;9944;48.240;16.478;2022-12-18T09:38:11;22.37;;;10.73;;
19593;SDS011;9944;48.240;16.478;2022-12-18T09:42:17;19.03;;;10.23;;
19593;SDS011;9944;48.240;16.478;2022-12-18T09:46:26;15.30;;;9.33;;
19593;SDS011;9944;48.240;16.478;2022-12-18T09:50:33;20.40;;;10.17;;
19593;SDS011;9944;48.240;16.478;2022-12-18T09:54:41;18.27;;;10.07;;
19593;SDS011;9944;48.240;16.478;2022-12-18T09:58:47;19.17;;;10.23;;
19593;SDS011;9944;48.240;16.478;2022-12-18T10:02:58;20.83;;;9.67;;
19593;SDS011;9944;48.240;16.478;2022-12-18T10:07:06;19.20;;;9.90;;
19593;SDS011;9944;48.240;16.478;2022-12-18T10:11:21;23.60;;;10.20;;
19593;SDS011;9944;48.240;16.478;2022-12-18T10:15:33;20.33;;;10.00;;
19593;SDS011;9944;48.240;16.478;2022-12-18T10:19:45;20.77;;;10.63;;
19593;SDS011;9944;48.240;16.478;2022-12-18T10:23:54;21.13;;;10.93;;
19593;SDS011;9944;48.240;16.478;2022-12-18T10:28:07;21.93;;;10.47;;
19593;SDS011;9944;48.240;16.478;2022-12-18T10:32:15;22.00;;;9.83;;
19593;SDS011;9944;48.240;16.478;2022-12-18T10:36:22;18.77;;;9.80;;
19593;SDS011;9944;48.240;16.478;2022-12-18T10:40:26;19.33;;;9.50;;
19593;SDS011;9944;48.240;16.478;2022-12-18T10:44:29;18.77;;;9.73;;
19593;SDS011;9944;48.240;16.478;2022-12-18T10:48:33;15.67;;;8.80;;
19593;SDS011;9944;48.240;16.478;2022-12-18T10:52:40;16.77;;;9.23;;
19593;SDS011;9944;48.240;16.478;2022-12-18T10:56:48;19.87;;;9.70;;
19593;SDS011;9944;48.240;16.478;2022-12-18T11:01:02;23.00;;;9.37;;
19593;SDS011;9944;48.240;16.478;2022-12-18T11:05:22;17.40;;;9.03;;
19593;SDS011;9944;48.240;16.478;2022-12-18T11:09:30;19.13;;;8.93;;
19593;SDS011;9944;48.240;16.478;2022-12-18T11:13:34;18.77;;;9.20;;
19593;SDS011;9944;48.240;16.478;2022-12-18T11:17:37;17.97;;;9.23;;
19593;SDS011;9944;48.240;16.478;2022-12-18T11:21:41;17.97;;;8.60;;
19593;SDS011;9944;48.240;16.478;2022-12-18T11:25:51;19.03;;;9.33;;
19593;SDS011;9944;48.240;16.478;2022-12-18T11:30:07;19.83;;;8.73;;
19593;SDS011;9944;48.240;16.478;2022-12-18T11:34:11;17.97;;;8.93;;
19593;SDS011;9944;48.240;16.478;2022-12-18T11:38:35;18.50;;;9.50;;
19593;SDS011;9944;48.240;16.478;2022-12-18T11:42:44;19.13;;;9.27;;
19593;SDS011;9944;48.240;16.478;2022-12-18T11:46:51;20.43;;;8.60;;
19593;SDS011;9944;48.240;16.478;2022-12-18T11:50:58;19.60;;;9.87;;
19593;SDS011;9944;48.240;16.478;2022-12-18T11:55:08;20.57;;;9.47;;
19593;SDS011;9944;48.240;16.478;2022-12-18T11:59:19;17.07;;;9.07;;
19593;SDS011;9944;48.240;16.478;2022-12-18T12:03:39;16.73;;;8.67;;
19593;SDS011;9944;48.240;16.478;2022-12-18T12:07:55;21.07;;;9.20;;
19593;SDS011;9944;48.240;16.478;2022-12-18T12:12:13;17.67;;;8.57;;
19593;SDS011;9944;48.240;16.478;2022-12-18T12:16:31;21.80;;;8.80;;
19593;SDS011;9944;48.240;16.478;2022-12-18T12:20:42;19.77;;;9.97;;
19593;SDS011;9944;48.240;16.478;2022-12-18T12:24:56;19.77;;;10.17;;
19593;SDS011;9944;48.240;16.478;2022-12-18T12:29:13;17.67;;;9.23;;
19593;SDS011;9944;48.240;16.478;2022-12-18T12:33:36;22.77;;;9.83;;
19593;SDS011;9944;48.240;16.478;2022-12-18T12:37:47;19.83;;;9.77;;
19593;SDS011;9944;48.240;16.478;2022-12-18T12:42:02;16.57;;;8.40;;
19593;SDS011;9944;48.240;16.478;2022-12-18T12:46:25;18.63;;;9.60;;
19593;SDS011;9944;48.240;16.478;2022-12-18T12:50:30;20.23;;;10.00;;
19593;SDS011;9944;48.240;16.478;2022-12-18T12:54:38;20.33;;;10.60;;
19593;SDS011;9944;48.240;16.478;2022-12-18T12:58:45;19.87;;;9.53;;
19593;SDS011;9944;48.240;16.478;2022-12-18T13:02:56;17.33;;;9.00;;
19593;SDS011;9944;48.240;16.478;2022-12-18T13:07:06;19.80;;;9.57;;
19593;SDS011;9944;48.240;16.478;2022-12-18T13:11:28;22.07;;;10.03;;
19593;SDS011;9944;48.240;16.478;2022-12-18T13:16:04;20.93;;;9.70;;
19593;SDS011;9944;48.240;16.478;2022-12-18T13:20:10;20.40;;;9.53;;
19593;SDS011;9944;48.240;16.478;2022-12-18T13:24:22;23.70;;;11.03;;
19593;SDS011;9944;48.240;16.478;2022-12-18T13:28:50;21.30;;;10.20;;
19593;SDS011;9944;48.240;16.478;2022-12-18T13:33:00;21.73;;;10.90;;
19593;SDS011;9944;48.240;16.478;2022-12-18T13:38:16;24.73;;;11.63;;
19593;SDS011;9944;48.240;16.478;2022-12-18T13:47:03;22.60;;;10.83;;
19593;SDS011;9944;48.240;16.478;2022-12-18T13:51:07;22.27;;;10.93;;
19593;SDS011;9944;48.240;16.478;2022-12-18T13:55:16;27.90;;;11.30;;
19593;SDS011;9944;48.240;16.478;2022-12-18T13:59:22;24.60;;;11.77;;
19593;SDS011;9944;48.240;16.478;2022-12-18T14:03:27;23.83;;;10.63;;
19593;SDS011;9944;48.240;16.478;2022-12-18T14:07:32;22.67;;;11.03;;
19593;SDS011;9944;48.240;16.478;2022-12-18T14:11:47;20.37;;;9.63;;
19593;SDS011;9944;48.240;16.478;2022-12-18T14:15:52;26.27;;;11.20;;
19593;SDS011;9944;48.240;16.478;2022-12-18T14:19:56;27.60;;;12.60;;
19593;SDS011;9944;48.240;16.478;2022-12-18T14:24:04;29.57;;;12.13;;
19593;SDS011;9944;48.240;16.478;2022-12-18T14:28:12;27.93;;;12.50;;
19593;SDS011;9944;48.240;16.478;2022-12-18T14:32:17;26.83;;;11.73;;
19593;SDS011;9944;48.240;16.478;2022-12-18T14:36:22;28.87;;;12.17;;
19593;SDS011;9944;48.240;16.478;2022-12-18T14:40:27;28.47;;;11.07;;
19593;SDS011;9944;48.240;16.478;2022-12-18T14:44:31;24.77;;;11.60;;
19593;SDS011;9944;48.240;16.478;2022-12-18T14:48:50;24.50;;;11.47;;
19593;SDS011;9944;48.240;16.478;2022-12-18T14:52:53;26.10;;;11.30;;
19593;SDS011;9944;48.240;16.478;2022-12-18T14:56:59;24.33;;;10.30;;
19593;SDS011;9944;48.240;16.478;2022-12-18T15:01:05;22.80;;;10.67;;
19593;SDS011;9944;48.240;16.478;2022-12-18T15:05:16;24.43;;;10.27;;
19593;SDS011;9944;48.240;16.478;2022-12-18T15:09:21;22.13;;;10.43;;
19593;SDS011;9944;48.240;16.478;2022-12-18T15:13:26;23.07;;;10.57;;
19593;SDS011;9944;48.240;16.478;2022-12-18T15:17:31;25.70;;;11.03;;
19593;SDS011;9944;48.240;16.478;2022-12-18T15:21:34;23.63;;;10.57;;
19593;SDS011;9944;48.240;16.478;2022-12-18T15:25:37;22.87;;;10.30;;
19593;SDS011;9944;48.240;16.478;2022-12-18T15:29:40;25.93;;;10.10;;
19593;SDS011;9944;48.240;16.478;2022-12-18T15:33:47;23.00;;;10.63;;
19593;SDS011;9944;48.240;16.478;2022-12-18T15:38:04;20.73;;;10.37;;
19593;SDS011;9944;48.240;16.478;2022-12-18T15:42:09;25.93;;;11.50;;
19593;SDS011;9944;48.240;16.478;2022-12-18T15:46:30;21.63;;;10.57;;
19593;SDS011;9944;48.240;16.478;2022-12-18T15:50:34;25.53;;;11.10;;
19593;SDS011;9944;48.240;16.478;2022-12-18T15:54:37;26.03;;;11.20;;
19593;SDS011;9944;48.240;16.478;2022-12-18T15:58:58;23.27;;;10.77;;
19593;SDS011;9944;48.240;16.478;2022-12-18T16:03:02;24.40;;;10.97;;
19593;SDS011;9944;48.240;16.478;2022-12-18T16:07:08;25.37;;;11.90;;
19593;SDS011;9944;48.240;16.478;2022-12-18T16:11:24;26.87;;;12.23;;
19593;SDS011;9944;48.240;16.478;2022-12-18T16:15:40;24.67;;;11.20;;
19593;SDS011;9944;48.240;16.478;2022-12-18T16:19:43;25.03;;;11.87;;
19593;SDS011;9944;48.240;16.478;2022-12-18T16:23:48;24.40;;;11.63;;
19593;SDS011;9944;48.240;16.478;2022-12-18T16:27:51;26.33;;;12.17;;
19593;SDS011;9944;48.240;16.478;2022-12-18T16:31:56;29.00;;;12.50;;
19593;SDS011;9944;48.240;16.478;2022-12-18T16:36:00;25.57;;;11.03;;
19593;SDS011;9944;48.240;16.478;2022-12-18T16:40:09;25.57;;;11.00;;
19593;SDS011;9944;48.240;16.478;2022-12-18T16:44:16;28.93;;;12.30;;
19593;SDS011;9944;48.240;16.478;2022-12-18T16:48:22;23.73;;;11.60;;
19593;SDS011;9944;48.240;16.478;2022-12-18T16:52:26;19.50;;;10.17;;
19593;SDS011;9944;48.240;16.478;2022-12-18T16:56:32;21.53;;;10.37;;
19593;SDS011;9944;48.240;16.478;2022-12-18T17:00:39;20.30;;;9.20;;
19593;SDS011;9944;48.240;16.478;2022-12-18T17:04:46;22.23;;;10.87;;
19593;SDS011;9944;48.240;16.478;2022-12-18T17:08:53;19.93;;;10.37;;
19593;SDS011;9944;48.240;16.478;2022-12-18T17:13:02;23.87;;;11.83;;
19593;SDS011;9944;48.240;16.478;2022-12-18T17:17:09;24.77;;;12.40;;
19593;SDS011;9944;48.240;16.478;2022-12-18T17:21:24;24.20;;;12.97;;
19593;SDS011;9944;48.240;16.478;2022-12-18T17:25:28;28.37;;;12.93;;
19593;SDS011;9944;48.240;16.478;2022-12-18T17:29:34;27.17;;;12.40;;
19593;SDS011;9944;48.240;16.478;2022-12-18T17:33:45;28.27;;;12.57;;
19593;SDS011;9944;48.240;16.478;2022-12-18T17:37:52;29.80;;;13.17;;
19593;SDS011;9944;48.240;16.478;2022-12-18T17:41:57;31.57;;;12.47;;
19593;SDS011;9944;48.240;16.478;2022-12-18T17:46:05;23.83;;;11.80;;
19593;SDS011;9944;48.240;16.478;2022-12-18T17:50:10;21.43;;;11.60;;
19593;SDS011;9944;48.240;16.478;2022-12-18T17:54:15;24.90;;;11.33;;
19593;SDS011;9944;48.240;16.478;2022-12-18T17:58:27;20.43;;;11.10;;
19593;SDS011;9944;48.240;16.478;2022-12-18T18:06:38;24.67;;;12.43;;
19593;SDS011;9944;48.240;16.478;2022-12-18T18:10:42;22.77;;;11.60;;
19593;SDS011;9944;48.240;16.478;2022-12-18T18:14:45;26.63;;;11.90;;
19593;SDS011;9944;48.240;16.478;2022-12-18T18:18:50;26.90;;;12.33;;
19593;SDS011;9944;48.240;16.478;2022-12-18T18:22:53;28.00;;;12.70;;
19593;SDS011;9944;48.240;16.478;2022-12-18T18:26:57;26.73;;;13.53;;
19593;SDS011;9944;48.240;16.478;2022-12-18T18:31:02;25.97;;;12.33;;
19593;SDS011;9944;48.240;16.478;2022-12-18T18:35:08;22.80;;;11.57;;
19593;SDS011;9944;48.240;16.478;2022-12-18T18:39:31;23.70;;;11.63;;
19593;SDS011;9944;48.240;16.478;2022-12-18T18:43:34;23.90;;;11.53;;
19593;SDS011;9944;48.240;16.478;2022-12-18T18:47:39;25.90;;;11.33;;
19593;SDS011;9944;48.240;16.478;2022-12-18T18:51:43;22.00;;;10.70;;
19593;SDS011;9944;48.240;16.478;2022-12-18T18:55:46;22.20;;;11.13;;
19593;SDS011;9944;48.240;16.478;2022-12-18T19:00:09;19.47;;;9.90;;
19593;SDS011;9944;48.240;16.478;2022-12-18T19:04:15;23.27;;;11.70;;
19593;SDS011;9944;48.240;16.478;2022-12-18T19:08:19;24.67;;;12.23;;
19593;SDS011;9944;48.240;16.478;2022-12-18T19:12:22;23.97;;;11.90;;
19593;SDS011;9944;48.240;16.478;2022-12-18T19:16:42;24.97;;;12.90;;
19593;SDS011;9944;48.240;16.478;2022-12-18T19:20:53;22.83;;;12.47;;
19593;SDS011;9944;48.240;16.478;2022-12-18T19:24:59;28.57;;;12.97;;
19593;SDS011;9944;48.240;16.478;2022-12-18T19:29:02;27.50;;;13.03;;
19593;SDS011;9944;48.240;16.478;2022-12-18T19:33:08;24.50;;;12.20;;
19593;SDS011;9944;48.240;16.478;2022-12-18T19:37:31;26.33;;;13.37;;
19593;SDS011;9944;48.240;16.478;2022-12-18T19:41:37;25.60;;;13.00;;
19593;SDS011;9944;48.240;16.478;2022-12-18T19:45:41;26.20;;;12.60;;
19593;SDS011;9944;48.240;16.478;2022-12-18T19:49:44;25.37;;;13.30;;
19593;SDS011;9944;48.240;16.478;2022-12-18T19:53:47;27.13;;;13.67;;
19593;SDS011;9944;48.240;16.478;2022-12-18T19:57:59;29.20;;;13.27;;
19593;SDS011;9944;48.240;16.478;2022-12-18T20:02:03;26.63;;;13.27;;
19593;SDS011;9944;48.240;16.478;2022-12-18T20:06:07;27.37;;;14.50;;
19593;SDS011;9944;48.240;16.478;2022-12-18T20:10:12;27.80;;;13.40;;
19593;SDS011;9944;48.240;16.478;2022-12-18T20:14:19;24.27;;;13.13;;
19593;SDS011;9944;48.240;16.478;2022-12-18T20:18:24;26.93;;;13.30;;
19593;SDS011;9944;48.240;16.478;2022-12-18T20:22:27;27.73;;;12.90;;
19593;SDS011;9944;48.240;16.478;2022-12-18T20:26:30;25.83;;;12.97;;
19593;SDS011;9944;48.240;16.478;2022-12-18T20:30:35;24.60;;;11.20;;
19593;SDS011;9944;48.240;16.478;2022-12-18T20:34:39;19.17;;;10.77;;
19593;SDS011;9944;48.240;16.478;2022-12-18T20:38:43;19.43;;;10.57;;
19593;SDS011;9944;48.240;16.478;2022-12-18T20:42:47;22.80;;;10.83;;
19593;SDS011;9944;48.240;16.478;2022-12-18T20:46:55;20.50;;;11.23;;
19593;SDS011;9944;48.240;16.478;2022-12-18T20:51:04;21.63;;;10.50;;
19593;SDS011;9944;48.240;16.478;2022-12-18T20:55:09;19.57;;;10.13;;
19593;SDS011;9944;48.240;16.478;2022-12-18T20:59:16;22.27;;;11.27;;
19593;SDS011;9944;48.240;16.478;2022-12-18T21:03:21;18.87;;;10.97;;
19593;SDS011;9944;48.240;16.478;2022-12-18T21:07:25;21.97;;;11.30;;
19593;SDS011;9944;48.240;16.478;2022-12-18T21:11:29;17.90;;;10.60;;
19593;SDS011;9944;48.240;16.478;2022-12-18T21:15:51;23.33;;;11.10;;
19593;SDS011;9944;48.240;16.478;2022-12-18T21:19:56;25.00;;;11.80;;
19593;SDS011;9944;48.240;16.478;2022-12-18T21:24:00;22.23;;;12.47;;
19593;SDS011;9944;48.240;16.478;2022-12-18T21:28:04;25.50;;;12.87;;
19593;SDS011;9944;48.240;16.478;2022-12-18T21:32:07;25.73;;;12.10;;
19593;SDS011;9944;48.240;16.478;2022-12-18T21:36:13;24.60;;;13.17;;
19593;SDS011;9944;48.240;16.478;2022-12-18T21:40:16;23.37;;;12.63;;
19593;SDS011;9944;48.240;16.478;2022-12-18T21:44:20;24.53;;;12.73;;
19593;SDS011;9944;48.240;16.478;2022-12-18T21:48:24;28.37;;;14.00;;
19593;SDS011;9944;48.240;16.478;2022-12-18T21:52:29;26.07;;;13.63;;
19593;SDS011;9944;48.240;16.478;2022-12-18T21:56:41;27.97;;;13.90;;
19593;SDS011;9944;48.240;16.478;2022-12-18T22:00:49;29.83;;;14.90;;
19593;SDS011;9944;48.240;16.478;2022-12-18T22:04:53;29.93;;;14.63;;
19593;SDS011;9944;48.240;16.478;2022-12-18T22:08:58;28.77;;;15.40;;
19593;SDS011;9944;48.240;16.478;2022-12-18T22:13:02;31.40;;;14.77;;
19593;SDS011;9944;48.240;16.478;2022-12-18T22:17:05;30.87;;;15.93;;
19593;SDS011;9944;48.240;16.478;2022-12-18T22:21:19;31.13;;;14.50;;
19593;SDS011;9944;48.240;16.478;2022-12-18T22:25:31;32.80;;;15.73;;
19593;SDS011;9944;48.240;16.478;2022-12-18T22:29:35;34.17;;;15.47;;
19593;SDS011;9944;48.240;16.478;2022-12-18T22:33:56;31.60;;;15.93;;
19593;SDS011;9944;48.240;16.478;2022-12-18T22:38:00;30.00;;;15.47;;
19593;SDS011;9944;48.240;16.478;2022-12-18T22:42:04;36.17;;;15.80;;
19593;SDS011;9944;48.240;16.478;2022-12-18T22:46:07;31.33;;;15.20;;
19593;SDS011;9944;48.240;16.478;2022-12-18T22:50:16;33.10;;;15.10;;
19593;SDS011;9944;48.240;16.478;2022-12-18T22:54:20;29.47;;;14.80;;
19593;SDS011;9944;48.240;16.478;2022-12-18T22:58:24;31.50;;;14.50;;
19593;SDS011;9944;48.240;16.478;2022-12-18T23:02:27;24.20;;;13.17;;
19593;SDS011;9944;48.240;16.478;2022-12-18T23:06:31;26.87;;;12.80;;
19593;SDS011;9944;48.240;16.478;2022-12-18T23:10:37;21.23;;;10.90;;
19593;SDS011;9944;48.240;16.478;2022-12-18T23:14:42;24.33;;;11.33;;
19593;SDS011;9944;48.240;16.478;2022-12-18T23:18:45;22.33;;;12.30;;
19593;SDS011;9944;48.240;16.478;2022-12-18T23:22:48;22.83;;;11.10;;
19593;SDS011;9944;48.240;16.478;2022-12-18T23:26:51;21.43;;;10.90;;
19593;SDS011;9944;48.240;16.478;2022-12-18T23:31:01;21.03;;;10.43;;
19593;SDS011;9944;48.240;16.478;2022-12-18T23:35:07;20.57;;;10.67;;
19593;SDS011;9944;48.240;16.478;2022-12-18T23:39:12;21.00;;;10.93;;
19593;SDS011;9944;48.240;16.478;2022-12-18T23:43:30;18.93;;;10.00;;
19593;SDS011;9944;48.240;16.478;2022-12-18T23:47:34;19.03;;;9.33;;
19593;SDS011;9944;48.240;16.478;2022-12-18T23:51:37;17.10;;;9.87;;
19593;SDS011;9944;48.240;16.478;2022-12-18T23:55:41;19.33;;;10.90;;
19593;SDS011;9944;48.240;16.478;2022-12-18T23:59:46;20.67;;;10.00;;
